Time;durP1;ratioP1;P1;durP2;ratioP2;P2;SDS_P1;SDS_P2;PMS_P1;PMS_P2;Temp;Humidity;BMP_temperature;BMP_pressure;BME280_temperature;BME280_humidity;BME280_pressure;Samples;Min_cycle;Max_cycle;Signal;HPM_P1;HPM_P2
2021/10/31 00:01:12;;;;;;;25.00;14.47;;;;;;;;;;767467;183;919529;-65
2021/10/31 00:03:39;;;;;;;17.37;12.37;;;;;;;;;;764652;183;920536;-65
2021/10/31 00:06:05;;;;;;;22.17;13.70;;;;;;;;;;770700;183;915610;-66
2021/10/31 00:08:30;;;;;;;18.80;12.52;;;;;;;;;;764029;183;918425;-65
2021/10/31 00:10:57;;;;;;;20.00;11.13;;;;;;;;;;765311;183;921762;-65
2021/10/31 00:13:23;;;;;;;19.80;13.73;;;;;;;;;;770525;183;919372;-65
2021/10/31 00:15:48;;;;;;;22.08;15.40;;;;;;;;;;767030;183;919286;-65
2021/10/31 00:18:14;;;;;;;21.50;14.80;;;;;;;;;;763784;183;1122231;-65
2021/10/31 00:20:40;;;;;;;21.10;12.40;;;;;;;;;;763507;183;922584;-65
2021/10/31 00:23:06;;;;;;;18.50;11.93;;;;;;;;;;766126;182;915832;-66
2021/10/31 00:25:32;;;;;;;15.90;11.40;;;;;;;;;;756536;183;917964;-65
2021/10/31 00:27:57;;;;;;;18.83;13.57;;;;;;;;;;765857;183;916041;-65
2021/10/31 00:30:23;;;;;;;27.00;14.33;;;;;;;;;;769321;183;918913;-66
2021/10/31 00:32:49;;;;;;;16.83;13.33;;;;;;;;;;762434;183;918904;-66
2021/10/31 00:35:15;;;;;;;18.97;13.60;;;;;;;;;;763636;183;918821;-65
2021/10/31 00:37:41;;;;;;;16.40;11.77;;;;;;;;;;765441;183;919238;-64
2021/10/31 00:40:07;;;;;;;15.13;11.00;;;;;;;;;;760603;183;919619;-65
2021/10/31 00:42:33;;;;;;;18.17;12.57;;;;;;;;;;759561;183;920265;-65
2021/10/31 00:44:59;;;;;;;18.80;13.02;;;;;;;;;;767910;183;915024;-64
2021/10/31 00:47:25;;;;;;;20.03;14.53;;;;;;;;;;759481;183;915169;-67
2021/10/31 00:49:51;;;;;;;16.73;12.50;;;;;;;;;;757528;183;916155;-65
2021/10/31 00:52:17;;;;;;;22.13;12.23;;;;;;;;;;762385;183;918448;-65
2021/10/31 00:54:43;;;;;;;18.00;12.53;;;;;;;;;;765337;183;918348;-65
2021/10/31 00:57:09;;;;;;;15.73;11.20;;;;;;;;;;762196;181;929480;-64
2021/10/31 00:59:35;;;;;;;18.95;12.32;;;;;;;;;;765096;182;918940;-64
2021/10/31 01:02:05;;;;;;;17.53;12.90;;;;;;;;;;771798;183;918076;-65
2021/10/31 01:04:26;;;;;;;25.63;16.30;;;;;;;;;;766992;183;918397;-66
2021/10/31 01:07:10;;;;;;;24.40;14.70;;;;;;;;;;765145;183;918841;-64
2021/10/31 01:09:42;;;;;;;21.07;14.07;;;;;;;;;;764918;183;917393;-65
2021/10/31 01:12:13;;;;;;;25.00;15.07;;;;;;;;;;766028;183;918919;-64
2021/10/31 01:14:43;;;;;;;26.43;16.70;;;;;;;;;;770388;183;918048;-65
2021/10/31 01:17:15;;;;;;;32.50;17.07;;;;;;;;;;762127;183;925634;-65
2021/10/31 01:19:43;;;;;;;28.03;17.40;;;;;;;;;;762290;183;918264;-65
2021/10/31 01:22:10;;;;;;;24.20;15.50;;;;;;;;;;764819;183;918853;-65
2021/10/31 01:24:37;;;;;;;22.83;13.60;;;;;;;;;;769183;183;919063;-65
2021/10/31 01:27:21;;;;;;;19.83;16.00;;;;;;;;;;764313;183;917906;-66
2021/10/31 01:29:46;;;;;;;22.80;15.23;;;;;;;;;;757105;183;937809;-65
2021/10/31 01:32:25;;;;;;;18.10;12.70;;;;;;;;;;759892;183;919857;-65
2021/10/31 01:34:53;;;;;;;19.48;12.85;;;;;;;;;;759092;183;1459897;-65
2021/10/31 01:37:21;;;;;;;22.60;13.27;;;;;;;;;;763353;183;918779;-65
2021/10/31 01:39:47;;;;;;;21.43;14.57;;;;;;;;;;771027;183;919026;-66
2021/10/31 01:42:16;;;;;;;22.40;12.83;;;;;;;;;;767005;183;918910;-66
2021/10/31 01:45:02;;;;;;;20.77;12.70;;;;;;;;;;762225;183;919154;-65
2021/10/31 01:47:34;;;;;;;16.52;11.98;;;;;;;;;;761118;183;919359;-65
2021/10/31 01:50:00;;;;;;;20.20;12.63;;;;;;;;;;761281;183;918920;-65
2021/10/31 01:52:26;;;;;;;16.27;11.60;;;;;;;;;;766773;183;918046;-65
2021/10/31 01:54:54;;;;;;;16.50;11.53;;;;;;;;;;765211;183;919736;-65
2021/10/31 01:57:21;;;;;;;19.35;12.10;;;;;;;;;;761792;183;919018;-65
2021/10/31 01:59:46;;;;;;;21.10;12.90;;;;;;;;;;769937;183;919283;-65
2021/10/31 02:02:12;;;;;;;16.83;12.60;;;;;;;;;;763565;183;919367;-65
2021/10/31 02:04:38;;;;;;;28.00;12.80;;;;;;;;;;765626;183;919511;-65
2021/10/31 02:07:04;;;;;;;21.10;11.77;;;;;;;;;;763818;183;918571;-65
2021/10/31 02:09:30;;;;;;;19.47;12.20;;;;;;;;;;773851;182;622243;-66
2021/10/31 02:11:55;;;;;;;24.00;12.43;;;;;;;;;;766861;182;1262681;-65
2021/10/31 02:14:21;;;;;;;17.70;12.27;;;;;;;;;;764678;183;919426;-65
2021/10/31 02:16:47;;;;;;;22.20;12.57;;;;;;;;;;773644;183;919564;-67
2021/10/31 02:19:14;;;;;;;19.93;12.17;;;;;;;;;;765547;183;919943;-65
2021/10/31 02:21:40;;;;;;;31.40;17.50;;;;;;;;;;763781;183;920652;-65
2021/10/31 02:24:05;;;;;;;26.03;16.07;;;;;;;;;;768319;183;925501;-65
2021/10/31 02:26:31;;;;;;;23.30;16.50;;;;;;;;;;761637;183;919214;-65
2021/10/31 02:28:57;;;;;;;20.30;13.53;;;;;;;;;;763230;183;918668;-64
2021/10/31 02:31:23;;;;;;;20.43;14.57;;;;;;;;;;763992;183;918823;-65
2021/10/31 02:33:49;;;;;;;19.73;13.93;;;;;;;;;;764240;183;919165;-65
2021/10/31 02:36:15;;;;;;;18.60;12.80;;;;;;;;;;759452;183;919897;-65
2021/10/31 02:38:40;;;;;;;20.67;12.33;;;;;;;;;;761806;183;920241;-65
2021/10/31 02:41:06;;;;;;;22.53;14.67;;;;;;;;;;763952;183;919269;-65
2021/10/31 02:43:32;;;;;;;25.97;14.77;;;;;;;;;;761551;183;1016426;-64
2021/10/31 02:45:58;;;;;;;21.83;14.83;;;;;;;;;;763369;183;919144;-64
2021/10/31 02:48:24;;;;;;;23.03;14.97;;;;;;;;;;769567;183;917364;-65
2021/10/31 02:50:50;;;;;;;25.40;17.20;;;;;;;;;;765358;183;916101;-65
2021/10/31 02:53:22;;;;;;;21.67;14.67;;;;;;;;;;764146;183;919820;-65
2021/10/31 02:55:57;;;;;;;18.57;13.50;;;;;;;;;;762031;183;918357;-64
2021/10/31 02:58:29;;;;;;;22.40;13.23;;;;;;;;;;767957;183;918247;-64
2021/10/31 03:00:55;;;;;;;22.50;14.60;;;;;;;;;;767350;183;918407;-65
2021/10/31 03:03:20;;;;;;;28.73;16.83;;;;;;;;;;760424;183;919462;-65
2021/10/31 03:05:45;;;;;;;24.23;17.73;;;;;;;;;;761516;183;918235;-65
2021/10/31 03:08:11;;;;;;;25.03;16.60;;;;;;;;;;765786;183;918899;-64
2021/10/31 03:10:37;;;;;;;21.67;14.47;;;;;;;;;;765042;183;919581;-65
2021/10/31 03:13:04;;;;;;;22.33;14.43;;;;;;;;;;761015;183;920164;-64
2021/10/31 03:15:29;;;;;;;23.37;14.50;;;;;;;;;;766791;183;919425;-65
2021/10/31 03:17:55;;;;;;;24.27;15.57;;;;;;;;;;761584;183;919870;-64
2021/10/31 03:20:21;;;;;;;25.03;15.40;;;;;;;;;;764479;180;918867;-65
2021/10/31 03:22:46;;;;;;;23.20;15.00;;;;;;;;;;764154;182;919508;-65
2021/10/31 03:25:12;;;;;;;24.30;15.23;;;;;;;;;;770119;183;919426;-65
2021/10/31 03:27:38;;;;;;;23.57;17.23;;;;;;;;;;767313;183;919398;-65
2021/10/31 03:30:05;;;;;;;24.73;15.90;;;;;;;;;;764719;183;918598;-65
2021/10/31 03:32:30;;;;;;;24.50;16.70;;;;;;;;;;770812;183;918885;-66
2021/10/31 03:34:56;;;;;;;21.03;14.77;;;;;;;;;;761475;183;918843;-64
2021/10/31 03:37:22;;;;;;;24.40;15.60;;;;;;;;;;766858;183;919170;-65
2021/10/31 03:39:48;;;;;;;27.07;16.60;;;;;;;;;;769729;183;919414;-65
2021/10/31 03:42:14;;;;;;;19.90;13.47;;;;;;;;;;766050;183;919959;-65
2021/10/31 03:44:48;;;;;;;25.13;14.90;;;;;;;;;;765583;183;915149;-64
2021/10/31 03:47:07;;;;;;;21.10;14.60;;;;;;;;;;765316;183;915096;-65
2021/10/31 03:49:31;;;;;;;25.33;13.70;;;;;;;;;;775251;181;915339;-65
2021/10/31 03:51:57;;;;;;;22.13;15.23;;;;;;;;;;761479;183;921907;-65
2021/10/31 03:54:23;;;;;;;18.57;13.70;;;;;;;;;;763801;183;919353;-64
2021/10/31 03:56:49;;;;;;;20.43;14.20;;;;;;;;;;766062;183;919683;-65
2021/10/31 03:59:15;;;;;;;20.90;14.80;;;;;;;;;;761388;183;918333;-66
2021/10/31 04:01:41;;;;;;;21.43;15.60;;;;;;;;;;760243;183;920765;-66
2021/10/31 04:04:08;;;;;;;20.53;13.17;;;;;;;;;;767832;183;918161;-66
2021/10/31 04:06:32;;;;;;;24.77;15.40;;;;;;;;;;763226;183;918373;-66
2021/10/31 04:08:58;;;;;;;21.93;14.33;;;;;;;;;;765596;183;919810;-65
2021/10/31 04:11:24;;;;;;;19.57;14.20;;;;;;;;;;771471;183;916385;-66
2021/10/31 04:13:50;;;;;;;26.40;15.50;;;;;;;;;;760936;183;931432;-65
2021/10/31 04:16:16;;;;;;;22.63;15.33;;;;;;;;;;761374;183;918595;-66
2021/10/31 04:18:41;;;;;;;20.00;14.03;;;;;;;;;;760227;183;919744;-66
2021/10/31 04:21:07;;;;;;;21.80;14.13;;;;;;;;;;765390;183;918854;-65
2021/10/31 04:23:33;;;;;;;18.62;12.32;;;;;;;;;;763716;183;919000;-66
2021/10/31 04:25:59;;;;;;;23.43;14.50;;;;;;;;;;765700;183;914521;-66
2021/10/31 04:28:25;;;;;;;18.53;13.00;;;;;;;;;;770454;183;915694;-65
2021/10/31 04:30:51;;;;;;;23.40;14.77;;;;;;;;;;759014;181;1846322;-68
2021/10/31 04:33:17;;;;;;;23.57;15.73;;;;;;;;;;766006;182;942597;-65
2021/10/31 04:35:43;;;;;;;28.13;16.20;;;;;;;;;;770061;183;919436;-66
2021/10/31 04:38:17;;;;;;;20.07;15.37;;;;;;;;;;765345;183;919511;-66
2021/10/31 04:40:40;;;;;;;21.83;15.52;;;;;;;;;;763285;183;918623;-66
2021/10/31 04:43:04;;;;;;;21.83;15.37;;;;;;;;;;763564;183;918585;-65
2021/10/31 04:45:30;;;;;;;26.97;15.27;;;;;;;;;;768767;183;919157;-66
2021/10/31 04:47:56;;;;;;;25.83;15.83;;;;;;;;;;766114;183;919700;-65
2021/10/31 04:50:21;;;;;;;21.13;14.40;;;;;;;;;;765656;183;919659;-66
2021/10/31 04:52:47;;;;;;;24.97;14.40;;;;;;;;;;771760;183;918770;-63
2021/10/31 04:55:13;;;;;;;17.10;12.10;;;;;;;;;;765929;183;918293;-66
2021/10/31 04:57:39;;;;;;;20.90;12.67;;;;;;;;;;764879;183;916967;-66
2021/10/31 05:00:05;;;;;;;20.43;14.80;;;;;;;;;;768270;183;915386;-64
2021/10/31 05:02:33;;;;;;;23.77;14.20;;;;;;;;;;766814;183;916207;-65
2021/10/31 05:04:57;;;;;;;25.00;14.00;;;;;;;;;;766660;183;918647;-66
2021/10/31 05:07:23;;;;;;;20.98;12.35;;;;;;;;;;762816;183;957341;-66
2021/10/31 05:09:49;;;;;;;21.43;13.77;;;;;;;;;;768366;183;919315;-65
2021/10/31 05:12:15;;;;;;;19.57;13.60;;;;;;;;;;764168;183;918676;-68
2021/10/31 05:14:42;;;;;;;20.03;14.70;;;;;;;;;;764641;183;918864;-65
2021/10/31 05:17:08;;;;;;;24.50;14.30;;;;;;;;;;769092;183;918067;-65
2021/10/31 05:19:34;;;;;;;19.70;14.33;;;;;;;;;;763805;183;919634;-67
2021/10/31 05:22:00;;;;;;;21.03;13.67;;;;;;;;;;765679;183;919364;-65
2021/10/31 05:24:26;;;;;;;27.25;15.20;;;;;;;;;;767513;183;919676;-64
2021/10/31 05:26:52;;;;;;;26.20;16.03;;;;;;;;;;769877;181;919061;-65
2021/10/31 05:29:18;;;;;;;20.43;13.30;;;;;;;;;;764418;183;919207;-65
2021/10/31 05:31:44;;;;;;;21.27;14.87;;;;;;;;;;763859;183;918726;-66
2021/10/31 05:34:11;;;;;;;20.53;13.50;;;;;;;;;;770312;183;919775;-65
2021/10/31 05:36:36;;;;;;;19.57;13.93;;;;;;;;;;765980;183;918854;-65
2021/10/31 05:39:02;;;;;;;19.00;14.40;;;;;;;;;;763581;183;919238;-65
2021/10/31 05:41:27;;;;;;;23.10;14.53;;;;;;;;;;771349;183;919062;-65
2021/10/31 05:43:53;;;;;;;21.03;13.73;;;;;;;;;;764534;182;972883;-65
2021/10/31 05:46:19;;;;;;;29.10;14.93;;;;;;;;;;765577;182;919163;-66
2021/10/31 05:48:45;;;;;;;17.13;12.30;;;;;;;;;;774175;182;919722;-63
2021/10/31 05:51:11;;;;;;;21.77;15.10;;;;;;;;;;763101;183;919455;-64
2021/10/31 05:53:37;;;;;;;22.53;13.30;;;;;;;;;;764785;183;918089;-63
2021/10/31 05:56:04;;;;;;;26.43;14.87;;;;;;;;;;765949;183;920221;-64
2021/10/31 05:58:28;;;;;;;26.73;14.50;;;;;;;;;;770417;183;918975;-64
2021/10/31 06:00:54;;;;;;;28.43;17.03;;;;;;;;;;765279;183;919445;-65
2021/10/31 06:03:20;;;;;;;23.27;14.77;;;;;;;;;;765100;183;918748;-64
2021/10/31 06:05:47;;;;;;;21.55;15.50;;;;;;;;;;769270;183;919469;-65
2021/10/31 06:08:14;;;;;;;22.60;15.40;;;;;;;;;;764321;182;918473;-64
2021/10/31 06:10:38;;;;;;;23.63;16.33;;;;;;;;;;764353;183;918659;-65
2021/10/31 06:13:04;;;;;;;25.23;16.20;;;;;;;;;;773715;183;919123;-64
2021/10/31 06:15:30;;;;;;;25.77;16.00;;;;;;;;;;762524;183;918675;-64
2021/10/31 06:17:56;;;;;;;27.07;17.73;;;;;;;;;;761250;183;918537;-65
2021/10/31 06:20:22;;;;;;;29.63;18.03;;;;;;;;;;763124;183;919336;-65
2021/10/31 06:22:48;;;;;;;26.30;17.45;;;;;;;;;;764046;182;919163;-65
2021/10/31 06:25:13;;;;;;;32.33;15.63;;;;;;;;;;765598;183;919289;-64
2021/10/31 06:27:39;;;;;;;25.77;16.20;;;;;;;;;;760235;183;919086;-65
2021/10/31 06:30:06;;;;;;;24.50;16.30;;;;;;;;;;769748;183;919252;-65
2021/10/31 06:32:31;;;;;;;34.30;17.50;;;;;;;;;;767349;183;918994;-64
2021/10/31 06:34:57;;;;;;;27.83;17.95;;;;;;;;;;767879;183;920120;-65
2021/10/31 06:37:23;;;;;;;31.03;19.20;;;;;;;;;;768785;183;919149;-65
2021/10/31 06:39:49;;;;;;;32.27;18.73;;;;;;;;;;762894;183;919669;-66
2021/10/31 06:42:15;;;;;;;29.90;20.30;;;;;;;;;;765293;183;1004037;-64
2021/10/31 06:44:41;;;;;;;36.23;23.60;;;;;;;;;;763554;183;919285;-65
2021/10/31 06:47:07;;;;;;;41.20;23.87;;;;;;;;;;764453;183;918991;-66
2021/10/31 06:49:32;;;;;;;40.03;22.83;;;;;;;;;;759727;183;919150;-65
2021/10/31 06:51:59;;;;;;;67.40;39.38;;;;;;;;;;761729;183;919002;-65
2021/10/31 06:54:24;;;;;;;105.60;51.60;;;;;;;;;;770288;182;918337;-64
2021/10/31 06:56:50;;;;;;;63.65;36.70;;;;;;;;;;766227;182;919138;-63
2021/10/31 06:59:16;;;;;;;37.90;22.73;;;;;;;;;;767039;182;919752;-64
2021/10/31 07:01:42;;;;;;;36.27;21.33;;;;;;;;;;771908;182;919239;-63
2021/10/31 07:04:08;;;;;;;30.03;18.97;;;;;;;;;;767634;183;920838;-65
2021/10/31 07:06:34;;;;;;;51.87;30.77;;;;;;;;;;763912;183;918941;-64
2021/10/31 07:08:59;;;;;;;59.93;34.70;;;;;;;;;;771757;183;915441;-65
2021/10/31 07:11:25;;;;;;;71.50;38.33;;;;;;;;;;763972;183;914546;-66
2021/10/31 07:13:51;;;;;;;59.30;30.27;;;;;;;;;;767300;183;913420;-64
2021/10/31 07:16:17;;;;;;;58.92;27.50;;;;;;;;;;765703;183;922514;-64
2021/10/31 07:18:43;;;;;;;47.07;28.37;;;;;;;;;;771415;183;919043;-65
2021/10/31 07:21:09;;;;;;;51.30;27.73;;;;;;;;;;765216;183;914686;-65
2021/10/31 07:23:34;;;;;;;33.70;21.20;;;;;;;;;;768031;183;629889;-65
2021/10/31 07:26:00;;;;;;;31.90;18.00;;;;;;;;;;772643;183;631801;-66
2021/10/31 07:28:26;;;;;;;29.00;17.27;;;;;;;;;;766505;183;795843;-67
2021/10/31 07:30:53;;;;;;;18.90;14.30;;;;;;;;;;768550;183;641974;-67
2021/10/31 07:33:19;;;;;;;25.50;15.93;;;;;;;;;;772841;183;624800;-67
2021/10/31 07:35:45;;;;;;;26.37;15.97;;;;;;;;;;767015;183;625549;-67
2021/10/31 07:38:12;;;;;;;22.20;14.83;;;;;;;;;;763356;183;626794;-67
2021/10/31 07:40:36;;;;;;;24.70;15.23;;;;;;;;;;767197;183;627379;-67
2021/10/31 07:43:04;;;;;;;18.40;11.37;;;;;;;;;;771541;183;619692;-67
2021/10/31 07:45:28;;;;;;;19.30;12.90;;;;;;;;;;765745;183;621230;-67
2021/10/31 07:47:54;;;;;;;20.13;12.33;;;;;;;;;;769177;183;626536;-68
2021/10/31 07:50:20;;;;;;;20.10;12.03;;;;;;;;;;772324;183;619060;-67
2021/10/31 07:52:46;;;;;;;20.63;12.47;;;;;;;;;;771672;183;629505;-67
2021/10/31 07:55:17;;;;;;;21.60;13.77;;;;;;;;;;770324;183;650173;-67
2021/10/31 07:57:38;;;;;;;21.53;12.60;;;;;;;;;;774299;183;639174;-69
2021/10/31 08:00:04;;;;;;;19.00;12.40;;;;;;;;;;766370;182;625212;-68
2021/10/31 08:02:30;;;;;;;20.47;10.27;;;;;;;;;;768344;183;628104;-68
2021/10/31 08:04:55;;;;;;;19.60;10.43;;;;;;;;;;768014;183;628732;-68
2021/10/31 08:07:29;;;;;;;17.70;12.03;;;;;;;;;;776839;181;639225;-69
2021/10/31 08:09:47;;;;;;;14.50;10.23;;;;;;;;;;768736;182;623970;-67
2021/10/31 08:12:14;;;;;;;21.65;13.80;;;;;;;;;;765727;183;918446;-66
2021/10/31 08:14:39;;;;;;;22.80;13.60;;;;;;;;;;772700;183;918281;-68
2021/10/31 08:17:05;;;;;;;20.97;13.23;;;;;;;;;;762821;183;919689;-68
2021/10/31 08:19:31;;;;;;;19.10;10.90;;;;;;;;;;765684;183;919386;-67
2021/10/31 08:21:57;;;;;;;15.77;10.00;;;;;;;;;;773078;183;918503;-68
2021/10/31 08:24:24;;;;;;;19.93;11.40;;;;;;;;;;764486;183;918142;-68
2021/10/31 08:26:48;;;;;;;14.87;10.10;;;;;;;;;;764665;183;918617;-70
2021/10/31 08:29:17;;;;;;;14.50;10.00;;;;;;;;;;762674;183;918389;-68
2021/10/31 08:31:42;;;;;;;14.43;9.73;;;;;;;;;;768342;180;918858;-69
2021/10/31 08:34:06;;;;;;;16.20;8.63;;;;;;;;;;758535;183;918818;-68
2021/10/31 08:36:32;;;;;;;13.40;7.82;;;;;;;;;;753288;183;919173;-68
2021/10/31 08:38:58;;;;;;;13.13;8.67;;;;;;;;;;768851;183;919017;-68
2021/10/31 08:41:24;;;;;;;15.50;9.70;;;;;;;;;;767471;182;924497;-69
2021/10/31 08:43:49;;;;;;;12.13;8.27;;;;;;;;;;764023;183;1015776;-69
2021/10/31 08:46:15;;;;;;;21.73;8.27;;;;;;;;;;768866;183;918635;-68
2021/10/31 08:48:41;;;;;;;11.47;8.13;;;;;;;;;;763266;183;919800;-68
2021/10/31 08:51:07;;;;;;;12.93;9.02;;;;;;;;;;759570;183;920578;-69
2021/10/31 08:53:33;;;;;;;10.40;7.93;;;;;;;;;;771677;183;918663;-69
2021/10/31 08:55:59;;;;;;;11.53;7.50;;;;;;;;;;766363;183;921133;-69
2021/10/31 08:58:24;;;;;;;13.60;8.43;;;;;;;;;;763426;183;920887;-69
2021/10/31 09:00:50;;;;;;;20.33;8.93;;;;;;;;;;765200;183;920208;-70
2021/10/31 09:03:16;;;;;;;9.43;7.73;;;;;;;;;;769629;183;920536;-69
2021/10/31 09:05:42;;;;;;;12.67;8.77;;;;;;;;;;763164;183;921198;-69
2021/10/31 09:08:09;;;;;;;30.88;12.20;;;;;;;;;;762444;183;918600;-69
2021/10/31 09:10:34;;;;;;;13.30;7.85;;;;;;;;;;766079;183;920773;-71
2021/10/31 09:13:00;;;;;;;14.03;7.80;;;;;;;;;;763678;183;918503;-71
2021/10/31 09:15:25;;;;;;;13.02;7.37;;;;;;;;;;763520;183;921016;-70
2021/10/31 09:17:51;;;;;;;14.30;9.27;;;;;;;;;;771038;182;918796;-71
2021/10/31 09:20:17;;;;;;;19.37;8.87;;;;;;;;;;771440;182;917562;-70
2021/10/31 09:22:43;;;;;;;10.90;7.67;;;;;;;;;;766964;182;917892;-71
2021/10/31 09:25:09;;;;;;;13.07;8.70;;;;;;;;;;768896;183;920669;-71
2021/10/31 09:27:36;;;;;;;11.10;7.73;;;;;;;;;;756610;183;922979;-72
2021/10/31 09:30:00;;;;;;;10.87;7.80;;;;;;;;;;758320;183;917637;-70
2021/10/31 09:32:34;;;;;;;14.63;8.20;;;;;;;;;;760999;183;954882;-72
2021/10/31 09:35:00;;;;;;;11.98;7.37;;;;;;;;;;766578;183;911497;-70
2021/10/31 09:37:26;;;;;;;11.77;7.90;;;;;;;;;;761896;183;912219;-71
2021/10/31 09:39:52;;;;;;;13.20;7.63;;;;;;;;;;762932;183;1012720;-71
2021/10/31 09:42:18;;;;;;;13.48;8.50;;;;;;;;;;764220;183;911865;-70
2021/10/31 09:44:49;;;;;;;10.97;8.60;;;;;;;;;;762150;183;915701;-70
2021/10/31 09:47:14;;;;;;;12.07;8.90;;;;;;;;;;765870;183;915760;-71
2021/10/31 09:49:40;;;;;;;12.43;7.60;;;;;;;;;;761084;183;1727862;-71
2021/10/31 09:52:06;;;;;;;15.90;8.23;;;;;;;;;;769317;183;919642;-70
2021/10/31 09:54:32;;;;;;;13.20;8.70;;;;;;;;;;766252;183;1011227;-72
2021/10/31 09:56:58;;;;;;;11.43;7.57;;;;;;;;;;766690;183;919055;-71
2021/10/31 09:59:26;;;;;;;13.13;7.80;;;;;;;;;;764265;183;919277;-71
2021/10/31 10:04:26;;;;;;;16.13;8.93;;;;;;;;;;763038;183;919362;-73
2021/10/31 10:06:53;;;;;;;12.80;8.10;;;;;;;;;;761216;183;971330;-71
2021/10/31 10:09:19;;;;;;;18.20;8.67;;;;;;;;;;761808;183;919304;-73
2021/10/31 10:11:44;;;;;;;11.07;7.83;;;;;;;;;;769083;181;918595;-72
2021/10/31 10:14:10;;;;;;;15.10;8.90;;;;;;;;;;765416;183;919001;-72
2021/10/31 10:16:36;;;;;;;10.03;7.43;;;;;;;;;;759875;183;919373;-74
2021/10/31 10:19:02;;;;;;;12.23;8.20;;;;;;;;;;768525;183;919065;-71
2021/10/31 10:21:28;;;;;;;15.03;8.40;;;;;;;;;;763948;183;918552;-73
2021/10/31 10:23:55;;;;;;;11.18;7.53;;;;;;;;;;763501;183;919122;-72
2021/10/31 10:26:24;;;;;;;14.67;10.87;;;;;;;;;;760279;183;1942405;-75
2021/10/31 10:28:48;;;;;;;10.20;7.10;;;;;;;;;;768717;182;918294;-73
2021/10/31 10:31:29;;;;;;;12.07;8.23;;;;;;;;;;768301;182;918557;-72
2021/10/31 10:33:55;;;;;;;15.57;9.23;;;;;;;;;;764857;183;918325;-72
2021/10/31 10:36:21;;;;;;;13.30;8.77;;;;;;;;;;767552;183;1021594;-72
2021/10/31 10:38:46;;;;;;;12.57;8.57;;;;;;;;;;773999;180;919504;-73
2021/10/31 10:41:28;;;;;;;13.90;8.17;;;;;;;;;;764067;182;918951;-73
2021/10/31 10:43:54;;;;;;;12.43;8.57;;;;;;;;;;763579;183;918184;-73
2021/10/31 10:46:19;;;;;;;9.63;6.90;;;;;;;;;;764103;183;918813;-71
2021/10/31 10:48:51;;;;;;;12.60;9.43;;;;;;;;;;766485;183;924187;-72
2021/10/31 10:51:17;;;;;;;12.20;7.60;;;;;;;;;;766439;183;918314;-72
2021/10/31 10:53:43;;;;;;;11.00;8.13;;;;;;;;;;762500;183;919621;-73
2021/10/31 10:56:09;;;;;;;12.43;8.07;;;;;;;;;;769526;183;916593;-72
2021/10/31 10:58:35;;;;;;;11.00;8.00;;;;;;;;;;763982;183;918161;-68
2021/10/31 11:01:01;;;;;;;13.30;8.80;;;;;;;;;;765350;183;918458;-73
2021/10/31 11:03:28;;;;;;;10.80;7.87;;;;;;;;;;765425;183;832679;-74
2021/10/31 11:05:59;;;;;;;12.83;8.67;;;;;;;;;;766975;183;918865;-72
2021/10/31 11:08:25;;;;;;;14.73;7.50;;;;;;;;;;762133;183;918876;-72
2021/10/31 11:10:55;;;;;;;12.93;8.50;;;;;;;;;;764130;183;918286;-73
2021/10/31 11:13:19;;;;;;;9.73;7.57;;;;;;;;;;760493;183;1225668;-71
2021/10/31 11:15:45;;;;;;;9.97;7.33;;;;;;;;;;773841;179;920565;-70
2021/10/31 11:18:11;;;;;;;13.73;7.50;;;;;;;;;;759643;183;919815;-73
2021/10/31 11:20:37;;;;;;;13.70;8.60;;;;;;;;;;764850;183;919459;-72
2021/10/31 11:23:03;;;;;;;9.50;7.10;;;;;;;;;;769882;183;943166;-72
2021/10/31 11:25:28;;;;;;;10.40;8.10;;;;;;;;;;763493;183;921245;-72
2021/10/31 11:27:54;;;;;;;14.13;7.50;;;;;;;;;;764396;183;917372;-71
2021/10/31 11:30:20;;;;;;;12.50;7.20;;;;;;;;;;770527;183;634381;-73
2021/10/31 11:32:46;;;;;;;11.77;7.50;;;;;;;;;;763533;183;951244;-72
2021/10/31 11:35:12;;;;;;;14.90;7.60;;;;;;;;;;762767;183;918695;-72
2021/10/31 11:37:39;;;;;;;10.43;7.37;;;;;;;;;;765416;183;918490;-74
2021/10/31 11:40:05;;;;;;;14.37;8.47;;;;;;;;;;769380;181;919741;-72
2021/10/31 11:42:31;;;;;;;15.10;9.40;;;;;;;;;;764224;183;919268;-70
2021/10/31 11:44:57;;;;;;;11.10;7.80;;;;;;;;;;762298;183;922872;-73
2021/10/31 11:47:29;;;;;;;14.10;7.77;;;;;;;;;;769437;183;630512;-73
2021/10/31 11:49:55;;;;;;;10.03;7.70;;;;;;;;;;762325;183;1221568;-69
2021/10/31 11:52:26;;;;;;;9.50;7.37;;;;;;;;;;767346;183;919673;-73
2021/10/31 11:54:59;;;;;;;10.43;6.90;;;;;;;;;;760486;183;1168307;-72
2021/10/31 11:57:25;;;;;;;14.40;8.13;;;;;;;;;;764968;183;921436;-71
2021/10/31 11:59:57;;;;;;;12.03;7.20;;;;;;;;;;764222;183;926600;-72
2021/10/31 12:02:29;;;;;;;11.37;8.30;;;;;;;;;;763857;183;919367;-72
2021/10/31 12:05:17;;;;;;;11.43;8.17;;;;;;;;;;770711;183;639312;-74
2021/10/31 12:07:44;;;;;;;11.20;7.40;;;;;;;;;;769226;183;626747;-73
2021/10/31 12:10:16;;;;;;;10.33;7.30;;;;;;;;;;765677;183;912638;-73
2021/10/31 12:12:41;;;;;;;9.00;6.87;;;;;;;;;;769166;183;918836;-73
2021/10/31 12:15:07;;;;;;;11.37;7.20;;;;;;;;;;762743;183;918219;-71
2021/10/31 12:17:39;;;;;;;13.13;8.57;;;;;;;;;;764612;183;919552;-73
2021/10/31 12:20:06;;;;;;;8.70;6.10;;;;;;;;;;761812;183;919208;-73
2021/10/31 12:22:32;;;;;;;9.97;7.27;;;;;;;;;;770344;183;919056;-73
2021/10/31 12:25:00;;;;;;;10.00;6.80;;;;;;;;;;762855;183;918725;-72
2021/10/31 12:27:26;;;;;;;7.27;6.20;;;;;;;;;;764683;183;930767;-72
2021/10/31 12:29:54;;;;;;;7.83;6.57;;;;;;;;;;770711;183;918367;-71
2021/10/31 12:32:20;;;;;;;9.87;6.60;;;;;;;;;;765369;183;1225495;-71
2021/10/31 12:34:46;;;;;;;10.47;7.70;;;;;;;;;;764792;183;918344;-73
2021/10/31 12:37:18;;;;;;;14.50;6.93;;;;;;;;;;766220;183;920902;-74
2021/10/31 12:40:00;;;;;;;10.60;7.07;;;;;;;;;;769843;182;1018309;-75
2021/10/31 12:42:34;;;;;;;9.47;7.00;;;;;;;;;;768549;183;918030;-71
2021/10/31 12:45:01;;;;;;;15.57;8.80;;;;;;;;;;769962;183;917798;-72
2021/10/31 12:47:32;;;;;;;11.20;7.03;;;;;;;;;;761388;183;1342353;-72
2021/10/31 12:50:04;;;;;;;18.87;6.93;;;;;;;;;;763839;183;918906;-73
2021/10/31 12:52:30;;;;;;;10.00;6.87;;;;;;;;;;766556;181;945029;-72
2021/10/31 12:54:57;;;;;;;9.27;6.97;;;;;;;;;;771210;180;918906;-72
2021/10/31 12:57:22;;;;;;;11.70;6.50;;;;;;;;;;766183;183;923998;-70
2021/10/31 12:59:48;;;;;;;25.03;8.83;;;;;;;;;;765938;183;1017582;-71
2021/10/31 13:02:20;;;;;;;12.10;7.80;;;;;;;;;;770498;182;915961;-72
2021/10/31 13:04:54;;;;;;;10.20;6.63;;;;;;;;;;768681;183;915283;-72
2021/10/31 13:07:24;;;;;;;10.13;6.90;;;;;;;;;;762999;182;919154;-72
2021/10/31 13:09:47;;;;;;;10.87;7.27;;;;;;;;;;764758;183;918847;-72
2021/10/31 13:12:17;;;;;;;11.93;6.83;;;;;;;;;;769430;182;918604;-71
2021/10/31 13:14:43;;;;;;;8.30;6.90;;;;;;;;;;762218;183;919648;-72
2021/10/31 13:17:09;;;;;;;13.73;6.97;;;;;;;;;;762566;183;918372;-71
2021/10/31 13:19:36;;;;;;;9.90;7.80;;;;;;;;;;762036;183;918862;-71
2021/10/31 13:22:02;;;;;;;8.30;6.70;;;;;;;;;;771043;183;928402;-70
2021/10/31 13:24:28;;;;;;;9.53;6.93;;;;;;;;;;760885;183;1534382;-74
2021/10/31 13:26:54;;;;;;;11.37;7.77;;;;;;;;;;763090;183;923825;-73
2021/10/31 13:29:20;;;;;;;10.23;6.63;;;;;;;;;;767704;183;919166;-71
2021/10/31 13:31:46;;;;;;;9.90;7.30;;;;;;;;;;761450;183;917792;-71
2021/10/31 13:34:12;;;;;;;9.50;6.90;;;;;;;;;;765112;183;918683;-74
2021/10/31 13:36:39;;;;;;;9.25;6.78;;;;;;;;;;763663;183;917982;-70
2021/10/31 13:39:08;;;;;;;9.50;6.40;;;;;;;;;;773069;181;816284;-71
2021/10/31 13:41:49;;;;;;;14.80;6.43;;;;;;;;;;760524;183;1326473;-71
2021/10/31 13:44:17;;;;;;;11.20;7.93;;;;;;;;;;763115;183;918539;-72
2021/10/31 13:46:50;;;;;;;12.13;7.30;;;;;;;;;;763313;183;918537;-71
2021/10/31 13:49:17;;;;;;;12.70;7.40;;;;;;;;;;762972;183;919318;-69
2021/10/31 13:51:43;;;;;;;9.33;6.90;;;;;;;;;;767659;183;893909;-70
2021/10/31 13:54:09;;;;;;;13.33;7.00;;;;;;;;;;763741;182;918740;-69
2021/10/31 13:56:36;;;;;;;12.20;8.13;;;;;;;;;;762066;183;918200;-70
2021/10/31 13:59:01;;;;;;;11.23;6.97;;;;;;;;;;767496;183;979020;-69
2021/10/31 14:01:28;;;;;;;10.13;6.40;;;;;;;;;;763245;183;917150;-70
2021/10/31 14:03:54;;;;;;;14.73;8.80;;;;;;;;;;763838;182;920472;-70
2021/10/31 14:06:20;;;;;;;10.20;7.23;;;;;;;;;;769105;182;919371;-70
2021/10/31 14:08:46;;;;;;;13.33;8.03;;;;;;;;;;762368;183;919067;-70